Terminal Aerodrome Forecast
Issued by NWS Louisville, KY

Home | Current Version | Previous Version | Text Only | Print | Product List | Glossary On
Versions: 1 2 3 4 5 6 7 8 9 10 11 12 13 14
265
FTUS43 KLMK 231255 AAA
TAFLEX
TAF AMD
KLEX 231255Z 2313/2412 19008KT P6SM SCT025 BKN035
      TEMPO 2314/2318 BKN025
     FM241000 19012KT P6SM BKN035=

USA.gov is the U.S. government's official web portal to all federal, state and local government web resources and services.